Latest Weather Observations for Giles*

IDD60801

Issued at 1:31 pm CST Friday 4 September 2015 (issued every 30 minutes, with the page automatically refreshed every 10 minutes)

About weather observations | Map of weather stations | Latest weather observations for NT | Other Formats
Station Details ID: 013017 Name: GILES METEOROLOGICAL OFFICE Lat: -25.03 Lon: 128.30 Height: 598.0 m
Data from the previous 72 hours. | See also: Recent months at Giles*

* Giles observations are collected in the South Australia time zone, which includes daylight saving in the summer period. Therefore, Rain since 9am value is with respect to South Australia local time.

Date/Time
CST
Temp
°C
App
Temp
°C
Dew
Point
Rel
Hum
%
Delta-T
°C
Wind Press
QNH
hPa
Press
MSL
hPa
Rain
since 9 am
mm
Dir
 
Spd
km/h
Gust
km/h
Spd
kts
Gust
kts
04/01:00pm 22.6 18.3 -8.7 11 12.3 N 7 15 4 8 1023.1 1020.7 0.0
04/12:30pm 21.8 17.0 -5.9 15 11.4 NNE 11 17 6 9 1023.5 1021.1 0.0
04/12:00pm 21.3 16.9 -6.3 15 11.2 NNE 9 15 5 8 1023.9 1021.6 0.0
04/11:30am 20.8 16.3 -6.6 15 11.0 SE 9 15 5 8 1024.2 1021.9 0.0
04/11:00am 20.0 15.1 -3.2 20 9.9 E 13 20 7 11 1024.6 1022.2 0.0
04/10:30am 19.2 14.2 -1.2 25 9.0 ENE 15 19 8 10 1024.9 1022.5 0.0
04/10:00am 17.9 12.6 -0.4 29 8.1 E 17 24 9 13 1025.1 1022.7 0.0
04/09:30am 16.9 11.3 -0.1 31 7.5 E 19 26 10 14 1025.1 1022.7 0.0
04/09:00am 15.5 9.9 -0.1 34 6.8 E 19 24 10 13 1025.0 1022.6 0.0
04/08:30am 14.3 9.9 0.3 38 6.1 E 13 20 7 11 1024.9 1022.5 0.0
04/08:00am 12.3 7.8 -0.3 42 5.3 E 13 17 7 9 1024.7 1022.3 0.0
04/07:30am 10.2 5.5 -1.5 44 4.7 E 13 19 7 10 1024.6 1022.2 0.0
04/07:00am 7.8 3.5 -1.4 52 3.6 E 11 13 6 7 1024.5 1022.1 0.0
04/06:30am 6.9 2.6 -1.3 56 3.2 ESE 11 13 6 7 1024.1 1021.8 0.0
04/06:00am 7.2 2.5 -1.5 54 3.4 SE 13 15 7 8 1023.8 1021.5 0.0
04/05:30am 8.1 3.0 -1.9 49 3.9 ESE 15 17 8 9 1023.4 1021.0 0.0
04/05:00am 8.7 5.2 -1.1 50 3.9 ESE 7 9 4 5 1023.4 1021.0 0.0
04/04:30am 10.1 5.0 -2.3 42 4.9 E 15 20 8 11 1023.2 1020.8 0.0
04/04:00am 10.7 5.6 -2.1 41 5.1 ESE 15 20 8 11 1023.4 1021.0 0.0
04/03:30am 11.1 5.5 -2.5 38 5.4 E 17 19 9 10 1023.4 1021.0 0.0
04/03:00am 10.0 4.8 -2.9 40 5.0 ESE 15 17 8 9 1023.6 1021.2 0.0
04/02:30am 9.8 5.0 -2.8 41 4.9 ESE 13 15 7 8 1023.7 1021.4 0.0
04/02:00am 11.0 5.3 -3.5 36 5.6 ESE 17 20 9 11 1023.8 1021.5 0.0
04/01:30am 11.2 5.9 -3.5 35 5.7 ESE 15 17 8 9 1023.9 1021.6 0.0
04/01:00am 11.4 6.1 -3.5 35 5.8 ESE 15 17 8 9 1024.1 1021.8 0.0
04/12:30am 12.1 7.2 -3.5 33 6.1 ESE 13 17 7 9 1024.3 1022.0 0.0
04/12:00am 12.3 7.3 -4.3 31 6.4 ESE 13 15 7 8 1024.5 1022.1 0.0
 
Date/Time
CST
Temp
°C
App
Temp
°C
Dew
Point
Rel
Hum
%
Delta-T
°C
Wind Press
QNH
hPa
Press
MSL
hPa
Rain
since 9 am
mm
Dir
 
Spd
km/h
Gust
km/h
Spd
kts
Gust
kts
03/11:30pm 11.9 7.4 -3.4 34 6.0 SSE 11 13 6 7 1024.5 1022.1 0.0
03/11:00pm 13.6 9.3 -4.7 27 7.1 ESE 9 11 5 6 1024.5 1022.1 0.0
03/10:30pm 13.6 9.3 -4.7 27 7.1 ESE 9 13 5 7 1024.3 1022.0 0.0
03/10:00pm 13.9 9.8 -3.3 30 6.9 SSE 9 11 5 6 1024.3 1022.0 0.0
03/09:30pm 14.8 10.4 -5.4 24 7.8 SSE 9 9 5 5 1024.3 1022.0 0.0
03/09:00pm 15.4 11.0 -5.9 22 8.2 S 9 11 5 6 1023.9 1021.6 0.0
03/08:30pm 15.9 11.4 -6.7 20 8.6 S 9 11 5 6 1023.8 1021.5 0.0
03/08:00pm 16.6 11.8 -6.5 20 8.9 S 11 13 6 7 1023.4 1021.0 0.0
03/07:30pm 17.8 13.2 -7.6 17 9.7 SSW 9 11 5 6 1022.9 1020.5 0.0
03/07:00pm 18.8 14.2 -7.7 16 10.2 S 9 11 5 6 1022.5 1020.2 0.0
03/06:30pm 20.6 16.3 -9.5 12 11.4 SW 7 9 4 5 1022.1 1019.7 0.0
03/06:00pm 21.1 16.8 -9.1 12 11.6 SE 7 11 4 6 1022.0 1019.6 0.0
03/05:30pm 21.4 17.5 -7.0 14 11.4 NNE 6 11 3 6 1022.0 1019.6 0.0
03/05:00pm 21.9 18.0 -6.7 14 11.6 NNW 6 15 3 8 1021.9 1019.5 0.0
03/04:30pm 21.6 17.3 -8.8 12 11.8 WSW 7 15 4 8 1021.8 1019.4 0.0
03/04:00pm 21.4 16.3 -9.4 12 11.8 N 11 17 6 9 1021.8 1019.4 0.0
03/03:30pm 21.6 17.4 -8.2 13 11.7 ESE 7 15 4 8 1021.8 1019.4 0.0
03/03:00pm 20.5 16.0 -6.8 15 10.9 ENE 9 17 5 9 1022.1 1019.7 0.0
03/02:30pm 20.9 15.5 -7.9 13 11.3 SE 13 20 7 11 1022.1 1019.7 0.0
03/02:00pm 19.9 15.3 -8.0 14 10.8 E 9 17 5 9 1022.4 1020.1 0.0
03/01:30pm 19.2 13.5 -7.1 16 10.3 SE 15 26 8 14 1022.9 1020.5 0.0
03/01:00pm 19.5 13.8 -7.4 15 10.5 E 15 22 8 12 1023.5 1021.1 0.0
03/12:30pm 18.8 13.3 -5.6 18 9.8 SSE 15 24 8 13 1023.9 1021.6 0.0
03/12:00pm 17.6 12.3 -3.3 24 8.7 ESE 15 22 8 12 1024.6 1022.2 0.0
03/11:30am 17.4 11.9 -2.1 26 8.3 E 17 32 9 17 1024.9 1022.5 0.0
03/11:00am 16.6 10.6 -1.7 28 7.8 ESE 20 28 11 15 1025.2 1022.9 0.0
03/10:30am 15.9 9.5 -1.9 29 7.5 E 22 32 12 17 1025.4 1023.1 0.0
03/10:00am 14.9 7.9 -0.8 34 6.7 ESE 26 37 14 20 1025.4 1023.1 0.0
03/09:30am 14.3 7.3 -0.4 36 6.3 E 26 35 14 19 1025.3 1023.0 0.0
03/09:00am 12.8 6.6 -0.1 41 5.5 E 22 37 12 20 1025.3 1023.0 0.0
03/08:30am 11.2 5.0 0.0 46 4.7 E 22 32 12 17 1025.1 1022.7 0.0
03/08:00am 9.2 3.3 -0.7 50 4.0 ESE 20 28 11 15 1024.9 1022.5 0.0
03/07:30am 8.5 2.2 -1.0 51 3.8 ESE 22 28 12 15 1024.5 1022.1 0.0
03/07:00am 8.3 2.3 -1.6 49 3.9 E 20 28 11 15 1024.1 1021.8 0.0
03/06:30am 7.9 2.4 -2.2 49 3.9 ESE 17 22 9 12 1023.9 1021.6 0.0
03/06:00am 8.3 2.4 -2.3 47 4.1 ESE 19 24 10 13 1023.6 1021.2 0.0
03/05:30am 7.9 2.4 -2.2 49 3.9 ESE 17 19 9 10 1023.2 1020.8 0.0
03/05:00am 8.7 3.2 -2.4 45 4.3 E 17 20 9 11 1023.0 1020.6 0.0
03/04:30am 9.2 3.7 -2.3 44 4.5 E 17 20 9 11 1023.2 1020.8 0.0
03/04:00am 9.1 3.9 -2.5 44 4.5 E 15 19 8 10 1023.1 1020.7 0.0
03/03:30am 9.3 4.1 -2.5 43 4.6 E 15 20 8 11 1022.8 1020.4 0.0
03/03:00am 8.7 4.0 -2.1 46 4.2 E 13 17 7 9 1022.9 1020.5 0.0
03/02:30am 9.7 4.6 -2.3 43 4.7 E 15 22 8 12 1022.9 1020.5 0.0
03/02:00am 10.5 5.3 -2.4 40 5.1 ESE 15 20 8 11 1023.2 1020.8 0.0
03/01:30am 10.1 5.8 -1.6 44 4.7 E 11 17 6 9 1023.4 1021.0 0.0
03/01:00am 9.7 5.5 -0.9 47 4.3 SE 11 15 6 8 1023.5 1021.1 0.0
03/12:30am 10.3 6.1 -1.0 45 4.6 ESE 11 15 6 8 1023.5 1021.1 0.0
03/12:00am 10.3 6.6 0.0 49 4.3 E 9 11 5 6 1023.7 1021.4 0.0
 
Date/Time
CST
Temp
°C
App
Temp
°C
Dew
Point
Rel
Hum
%
Delta-T
°C
Wind Press
QNH
hPa
Press
MSL
hPa
Rain
since 9 am
mm
Dir
 
Spd
km/h
Gust
km/h
Spd
kts
Gust
kts
02/11:30pm 10.8 7.1 0.1 47 4.5 ESE 9 9 5 5 1023.6 1021.2 0.0
02/11:00pm 11.3 7.2 -0.5 44 4.9 ESE 11 13 6 7 1023.4 1021.0 0.0
02/10:30pm 11.7 8.0 -0.2 44 5.0 ESE 9 9 5 5 1023.2 1020.8 0.0
02/10:00pm 12.6 8.4 -0.8 39 5.6 SE 11 15 6 8 1023.0 1020.6 0.0
02/09:30pm 13.3 8.7 -1.4 36 6.1 SE 13 15 7 8 1022.9 1020.5 0.0
02/09:00pm 14.1 9.4 -1.8 33 6.6 SE 13 15 7 8 1022.5 1020.2 0.0
02/08:30pm 14.8 9.2 -2.8 29 7.2 SSE 17 20 9 11 1022.1 1019.7 0.0
02/08:00pm 15.5 10.3 -3.0 28 7.6 SSE 15 20 8 11 1021.9 1019.5 0.0
02/07:30pm 16.1 10.9 -3.0 27 7.9 SE 15 19 8 10 1021.7 1019.3 0.0
02/07:00pm 17.0 11.3 -3.7 24 8.5 SE 17 22 9 12 1021.4 1019.0 0.0
02/06:30pm 18.0 11.6 -5.0 20 9.3 SSE 20 28 11 15 1021.0 1018.6 0.0
02/06:00pm 18.9 13.0 -5.3 19 9.8 SE 17 24 9 13 1020.9 1018.5 0.0
02/05:30pm 19.2 12.8 -6.5 17 10.2 SE 19 26 10 14 1020.7 1018.4 0.0
02/05:00pm 19.4 13.0 -7.1 16 10.4 SE 19 28 10 15 1020.4 1018.0 0.0
02/04:30pm 19.5 13.9 -6.3 17 10.3 SE 15 24 8 13 1020.3 1017.9 0.0
02/04:00pm 19.3 13.3 -6.8 16 10.3 SE 17 32 9 17 1020.4 1018.0 0.0
02/03:30pm 18.8 12.5 -6.0 18 9.9 SE 19 30 10 16 1020.5 1018.1 0.0
02/03:00pm 18.7 12.8 -5.8 18 9.8 SE 17 24 9 13 1020.5 1018.1 0.0
02/02:30pm 18.0 11.0 -7.6 17 9.8 SSE 22 28 12 15 1020.7 1018.4 0.0
02/02:00pm 18.9 12.8 -7.4 16 10.2 SSE 17 30 9 16 1021.0 1018.6 0.0
02/01:30pm 17.2 9.8 -11.9 12 10.1 SE 22 35 12 19 1021.3 1018.9 0.0
02/01:00pm 16.6 9.5 -8.1 17 9.2 SE 22 32 12 17 1021.7 1019.3 0.0
02/12:30pm 16.2 9.1 -8.6 17 9.1 SSE 22 35 12 19 1022.2 1019.9 0.0
02/12:00pm 14.7 7.6 -8.6 19 8.4 SSE 22 37 12 20 1022.8 1020.4 0.0
02/11:30am 14.1 6.3 -7.4 22 7.9 SSE 26 39 14 21 1022.9 1020.5 0.0
02/11:00am 13.7 6.1 -5.9 25 7.4 SSE 26 37 14 20 1023.0 1020.6 0.0
02/10:30am 12.7 4.8 -5.2 28 6.8 SE 28 37 15 20 1022.9 1020.5 0.0
02/10:00am 11.7 3.3 -6.4 27 6.6 SSE 30 43 16 23 1022.9 1020.5 0.0
02/09:30am 10.7 2.0 -5.6 31 6.0 SSE 32 41 17 22 1022.5 1020.2 0.0
02/09:00am 9.9 1.7 -3.8 38 5.2 SSE 30 39 16 21 1022.1 1019.7 0.0
02/08:30am 9.3 1.9 -3.6 40 4.9 SSE 26 35 14 19 1022.0 1019.6 0.0
02/08:00am 8.1 2.4 -4.1 42 4.5 SSE 17 24 9 13 1021.8 1019.4 0.0
02/07:30am 6.6 1.7 -3.8 47 3.8 SE 13 15 7 8 1021.4 1019.0 0.0
02/07:00am 7.0 1.6 -4.3 44 4.1 SSE 15 20 8 11 1021.0 1018.6 0.0
02/06:30am 8.1 1.7 -5.2 38 4.8 S 20 28 11 15 1020.5 1018.1 0.0
02/06:00am 8.2 1.7 -5.9 36 5.0 SSE 20 30 11 16 1020.2 1017.8 0.0
02/05:30am 8.2 1.7 -6.3 35 5.1 SSE 20 24 11 13 1020.0 1017.6 0.0
02/05:00am 7.2 2.5 -4.7 42 4.3 SSE 11 13 6 7 1019.8 1017.4 0.0
02/04:30am 8.3 3.1 -5.7 36 5.0 SSE 13 17 7 9 1019.8 1017.4 0.0
02/04:00am 9.9 2.8 -8.2 27 6.2 S 22 32 12 17 1019.7 1017.3 0.0
02/03:30am 10.1 3.7 -7.2 29 6.1 S 19 28 10 15 1019.9 1017.5 0.0
02/03:00am 11.0 3.5 -8.3 25 6.7 S 24 33 13 18 1019.6 1017.2 0.0
02/02:30am 11.3 4.8 -8.1 25 6.8 S 19 26 10 14 1019.4 1017.0 0.0
02/02:00am 11.9 5.2 -8.3 23 7.1 S 20 30 11 16 1019.2 1016.7 0.0
02/01:30am 12.5 5.5 -7.5 24 7.2 S 22 33 12 18 1019.1 1016.6 0.0
02/01:00am 13.1 6.7 -5.2 27 7.0 SSW 20 30 11 16 1018.9 1016.5 0.0
02/12:30am 13.6 6.4 -5.1 27 7.2 SSW 24 43 13 23 1018.6 1016.2 0.0
02/12:00am 14.4 7.8 -3.5 29 7.2 SSW 22 33 12 18 1018.2 1015.8 0.0
 
Date/Time
CST
Temp
°C
App
Temp
°C
Dew
Point
Rel
Hum
%
Delta-T
°C
Wind Press
QNH
hPa
Press
MSL
hPa
Rain
since 9 am
mm
Dir
 
Spd
km/h
Gust
km/h
Spd
kts
Gust
kts
01/11:35pm 15.5 7.7 -4.2 25 7.9 SSW 28 46 15 25 1017.8 1015.4 0.0
01/11:30pm 15.9 8.6 -6.1 21 8.5 SSW 24 41 13 22 1017.7 1015.2 0.0
01/11:00pm 14.6 9.6 -4.3 27 7.5 WSW 13 17 7 9 1017.3 1014.8 0.0
01/10:30pm 15.7 10.6 -5.1 23 8.2 WSW 13 15 7 8 1016.8 1014.4 0.0
01/10:00pm 16.5 11.5 -4.7 23 8.5 WSW 13 17 7 9 1016.6 1014.2 0.0
01/09:30pm 17.5 12.5 -4.3 22 8.9 WSW 13 17 7 9 1016.2 1013.7 0.0
01/09:00pm 18.4 13.6 -2.7 23 9.0 WSW 13 17 7 9 1015.9 1013.4 0.0
01/08:30pm 19.6 14.4 -3.1 21 9.7 W 15 20 8 11 1015.2 1012.8 0.0
01/08:00pm 20.6 14.4 -3.4 19 10.3 W 20 30 11 16 1014.5 1012.0 0.0
01/07:30pm 21.2 14.5 -3.8 18 10.7 W 22 32 12 17 1014.0 1011.5 0.0
01/07:00pm 21.8 14.8 -3.7 18 11.0 W 24 35 13 19 1013.3 1010.9 0.0
01/06:30pm 22.7 15.3 -3.3 17 11.4 W 26 39 14 21 1012.8 1010.3 0.0
01/06:00pm 23.2 15.4 -3.9 16 11.8 W 28 41 15 22 1012.5 1010.0 0.0
01/05:30pm 24.0 15.9 -3.3 16 12.1 W 30 46 16 25 1012.2 1009.7 0.0
01/05:20pm 24.4 16.6 -3.7 15 12.4 W 28 46 15 25 1012.1 1009.6 0.0
01/05:00pm 24.5 16.3 -3.9 15 12.5 W 30 44 16 24 1012.1 1009.6 0.0
01/04:30pm 25.2 16.6 -4.0 14 12.9 W 32 54 17 29 1011.8 1009.4 0.0
01/04:00pm 25.5 17.2 -4.6 13 13.2 W 30 50 16 27 1011.8 1009.4 0.0
01/03:58pm 25.2 16.5 -5.0 13 13.1 W 32 50 17 27 1011.7 1009.2 0.0
01/03:30pm 24.9 16.3 -4.3 14 12.8 W 32 48 17 26 1012.0 1009.5 0.0
01/03:22pm 25.2 16.9 -4.5 13 13.0 W 30 48 16 26 1011.8 1009.4 0.0
01/03:00pm 25.0 15.7 -5.6 13 13.1 W 35 48 19 26 1012.0 1009.5 0.0
01/02:42pm 25.0 16.1 -5.6 13 13.1 W 33 57 18 31 1012.1 1009.6 0.0
01/02:30pm 25.3 15.6 -5.2 13 13.2 W 37 50 20 27 1012.2 1009.7 0.0
01/02:00pm 24.8 16.1 -3.6 15 12.6 W 33 56 18 30 1012.5 1010.0 0.0

Other Formats:

Comma delimited format used in spreadsheet applications
http://www.bom.gov.au/fwo/IDD60801/IDD60801.94461.axf

JavaScript Object Notation format (JSON) in row-major order
http://www.bom.gov.au/fwo/IDD60801/IDD60801.94461.json